createdAt,value
2023-05-10T00:01:08.572Z,52.57
2023-05-10T00:06:10.148Z,53.42
2023-05-10T00:11:11.688Z,53.53
2023-05-10T00:16:14.180Z,53.63
2023-05-10T00:21:16.141Z,54.83
2023-05-10T00:26:17.909Z,54.66
2023-05-10T00:31:19.469Z,54.82
2023-05-10T00:36:21.858Z,55.21
2023-05-10T00:41:23.852Z,55.56
2023-05-10T00:46:26.864Z,55.47
2023-05-10T00:51:28.841Z,54.82
2023-05-10T00:56:31.031Z,55.40
2023-05-10T01:01:33.169Z,54.85
2023-05-10T01:06:34.751Z,55.40
2023-05-10T01:11:39.342Z,55.43
2023-05-10T01:16:43.218Z,54.92
2023-05-10T01:21:50.719Z,55.05
2023-05-10T01:27:18.565Z,55.63
2023-05-10T01:32:38.759Z,55.50
2023-05-10T01:37:52.475Z,55.11
2023-05-10T01:43:03.606Z,55.53
2023-05-10T01:48:09.916Z,55.32
2023-05-10T01:53:14.142Z,55.36
2023-05-10T01:58:21.278Z,55.18
2023-05-10T02:03:25.912Z,55.95
2023-05-10T02:08:27.786Z,55.26
2023-05-10T02:13:32.727Z,55.16
2023-05-10T02:18:37.730Z,55.34
2023-05-10T02:23:39.982Z,55.32
2023-05-10T02:28:43.352Z,55.11
2023-05-10T02:33:47.055Z,55.82
2023-05-10T02:38:51.428Z,55.72
2023-05-10T02:43:57.437Z,55.86
2023-05-10T02:48:59.136Z,55.73
2023-05-10T02:54:13.117Z,55.88
2023-05-10T02:59:15.049Z,55.90
2023-05-10T03:04:16.614Z,56.58
2023-05-10T03:09:18.182Z,56.69
2023-05-10T03:14:57.315Z,56.81
2023-05-10T03:20:10.966Z,56.64
2023-05-10T03:25:14.545Z,56.74
2023-05-10T03:30:23.723Z,55.76
2023-05-10T03:35:25.267Z,53.59
2023-05-10T03:40:29.901Z,49.37
2023-05-10T03:45:31.904Z,46.33
2023-05-10T03:50:33.409Z,47.58
2023-05-10T03:55:37.161Z,48.89
2023-05-10T04:00:50.731Z,50.35
2023-05-10T04:06:01.071Z,51.44
2023-05-10T04:11:09.964Z,51.90
2023-05-10T04:16:11.484Z,52.49
2023-05-10T04:21:14.635Z,52.35
2023-05-10T04:26:16.252Z,52.57
2023-05-10T04:31:18.315Z,52.81
2023-05-10T04:36:19.957Z,52.87
2023-05-10T04:41:21.717Z,52.80
2023-05-10T04:46:23.456Z,52.60
2023-05-10T04:51:25.071Z,52.61
2023-05-10T04:56:26.569Z,52.43
2023-05-10T05:01:28.185Z,52.64
2023-05-10T05:06:29.882Z,52.51
2023-05-10T05:11:31.355Z,52.13
2023-05-10T05:16:33.462Z,52.43
2023-05-10T05:21:35.068Z,52.02
2023-05-10T05:26:37.605Z,52.05
2023-05-10T05:31:39.161Z,52.08
2023-05-10T05:36:40.853Z,51.88
2023-05-10T05:41:42.409Z,51.99
2023-05-10T05:46:43.891Z,51.88
2023-05-10T05:51:46.055Z,51.91
2023-05-10T05:56:47.571Z,51.12
2023-05-10T06:01:49.618Z,51.00
2023-05-10T06:06:51.189Z,50.88
2023-05-10T06:11:52.715Z,50.55
2023-05-10T06:16:54.218Z,50.36
2023-05-10T06:21:55.873Z,50.46
2023-05-10T06:26:57.399Z,50.45
2023-05-10T06:31:59.602Z,50.07
2023-05-10T06:37:01.164Z,49.95
2023-05-10T06:42:04.524Z,48.99
2023-05-10T06:47:05.972Z,49.23
2023-05-10T06:52:07.486Z,48.81
2023-05-10T06:57:19.490Z,48.22
2023-05-10T07:02:30.515Z,47.30
2023-05-10T07:07:32.273Z,47.31
2023-05-10T07:12:34.000Z,46.42
2023-05-10T07:17:35.841Z,44.37
2023-05-10T07:22:37.469Z,44.84
2023-05-10T07:27:39.025Z,44.49
2023-05-10T07:32:42.813Z,42.43
2023-05-10T07:37:44.433Z,40.57
2023-05-10T07:42:45.965Z,39.15
2023-05-10T07:47:47.583Z,38.76
2023-05-10T07:52:49.309Z,38.55
2023-05-10T07:57:50.796Z,39.76
2023-05-10T08:02:52.801Z,39.50
2023-05-10T08:07:54.392Z,38.15
2023-05-10T08:12:55.883Z,36.86
2023-05-10T08:17:57.452Z,36.47
2023-05-10T08:22:59.186Z,35.86
2023-05-10T08:28:00.697Z,36.21
2023-05-10T08:33:02.251Z,36.10
2023-05-10T08:38:03.850Z,35.49
2023-05-10T08:43:13.724Z,36.27
2023-05-10T08:48:16.331Z,36.20
2023-05-10T08:53:18.534Z,37.34
2023-05-10T08:58:20.640Z,37.13
2023-05-10T09:03:22.171Z,36.40
2023-05-10T09:08:26.848Z,36.16
2023-05-10T09:13:29.309Z,35.78
2023-05-10T09:18:30.882Z,34.78
2023-05-10T09:23:33.343Z,34.79
2023-05-10T09:28:51.170Z,35.04
2023-05-10T09:33:53.150Z,35.04
2023-05-10T09:38:54.750Z,34.44
2023-05-10T09:43:57.370Z,34.48
2023-05-10T09:49:00.211Z,34.40
2023-05-10T09:54:10.913Z,34.85
2023-05-10T09:59:13.812Z,34.58
2023-05-10T10:04:16.384Z,34.63
2023-05-10T10:09:19.533Z,33.41
2023-05-10T10:14:22.174Z,34.04
2023-05-10T10:19:23.678Z,34.26
2023-05-10T10:24:25.281Z,33.84
2023-05-10T10:29:46.593Z,34.86
2023-05-10T10:34:48.563Z,33.95
2023-05-10T10:39:51.477Z,34.28
2023-05-10T10:45:12.334Z,34.52
2023-05-10T10:50:14.100Z,33.77
2023-05-10T10:55:23.278Z,33.96
2023-05-10T11:00:29.610Z,34.02
2023-05-10T11:05:36.475Z,34.13
2023-05-10T11:10:38.525Z,34.15
2023-05-10T11:15:40.977Z,34.38
2023-05-10T11:20:42.784Z,34.26
2023-05-10T11:25:45.496Z,33.99
2023-05-10T11:30:53.802Z,34.33
2023-05-10T11:35:55.413Z,34.67
2023-05-10T11:40:57.075Z,33.66
2023-05-10T11:45:58.670Z,33.92
2023-05-10T11:51:02.985Z,34.11
2023-05-10T11:56:12.538Z,33.49
2023-05-10T12:01:14.289Z,34.27
2023-05-10T12:06:17.125Z,33.20
2023-05-10T12:11:19.240Z,33.80
2023-05-10T12:16:25.855Z,33.00
2023-05-10T12:21:29.376Z,33.24
2023-05-10T12:26:31.388Z,32.95
2023-05-10T12:31:33.189Z,32.37
2023-05-10T12:36:39.631Z,33.43
2023-05-10T12:41:43.535Z,32.88
2023-05-10T12:46:45.402Z,32.65
2023-05-10T12:51:47.078Z,32.13
2023-05-10T12:56:48.662Z,32.78
2023-05-10T13:01:50.322Z,32.96
2023-05-10T13:06:52.148Z,32.98
2023-05-10T13:11:55.197Z,31.92
2023-05-10T13:16:57.011Z,32.03
2023-05-10T13:21:59.205Z,32.02
2023-05-10T13:27:00.986Z,32.59
2023-05-10T13:32:02.701Z,31.87
2023-05-10T13:37:04.200Z,31.98
2023-05-10T13:42:06.064Z,31.90
2023-05-10T13:47:07.922Z,32.26
2023-05-10T13:52:11.082Z,32.27
2023-05-10T13:57:14.883Z,31.86
2023-05-10T14:02:16.532Z,31.13
2023-05-10T14:07:18.888Z,31.10
2023-05-10T14:12:20.487Z,30.89
2023-05-10T14:17:23.253Z,31.22
2023-05-10T14:22:25.095Z,31.17
2023-05-10T14:27:26.637Z,30.16
2023-05-10T14:32:28.963Z,30.82
2023-05-10T14:37:30.592Z,30.92
2023-05-10T14:42:32.374Z,30.99
2023-05-10T14:47:34.173Z,30.58
2023-05-10T14:52:35.989Z,29.49
2023-05-10T14:57:37.770Z,29.66
2023-05-10T15:02:39.682Z,29.40
2023-05-10T15:07:41.683Z,29.88
2023-05-10T15:12:43.269Z,28.85
2023-05-10T15:17:45.176Z,29.38
2023-05-10T15:22:46.737Z,28.86
2023-05-10T15:27:48.352Z,28.76
2023-05-10T15:32:50.128Z,28.45
2023-05-10T15:37:51.791Z,28.80
2023-05-10T15:42:53.312Z,28.30
2023-05-10T15:47:55.347Z,28.68
2023-05-10T15:52:56.911Z,28.38
2023-05-10T15:57:58.491Z,27.66
2023-05-10T16:03:00.047Z,27.14
2023-05-10T16:08:01.836Z,26.55
2023-05-10T16:13:03.887Z,27.26
2023-05-10T16:18:05.946Z,27.11
2023-05-10T16:23:08.006Z,27.09
2023-05-10T16:28:09.556Z,27.44
2023-05-10T16:33:11.139Z,27.95
2023-05-10T16:38:12.994Z,27.74
2023-05-10T16:43:14.618Z,27.24
2023-05-10T16:48:16.342Z,28.01
2023-05-10T16:53:18.368Z,27.85
2023-05-10T16:58:19.876Z,28.46
2023-05-10T17:03:21.745Z,28.33
2023-05-10T17:08:23.539Z,28.27
2023-05-10T17:13:25.212Z,28.65
2023-05-10T17:18:27.382Z,29.44
2023-05-10T17:23:30.427Z,29.60
2023-05-10T17:28:32.701Z,29.88
2023-05-10T17:33:34.565Z,30.60
2023-05-10T17:38:36.729Z,31.03
2023-05-10T17:43:38.401Z,31.88
2023-05-10T17:48:40.094Z,32.17
2023-05-10T17:53:42.296Z,32.51
2023-05-10T17:58:44.118Z,33.06
2023-05-10T18:03:47.126Z,33.33
2023-05-10T18:08:48.741Z,34.07
2023-05-10T18:13:50.365Z,34.41
2023-05-10T18:18:51.980Z,34.67
2023-05-10T18:23:53.942Z,35.21
2023-05-10T18:28:55.534Z,35.40
2023-05-10T18:33:57.656Z,36.40
2023-05-10T18:38:59.829Z,36.28
2023-05-10T18:44:01.963Z,36.63
2023-05-10T18:49:04.046Z,37.52
2023-05-10T18:54:06.416Z,37.17
2023-05-10T18:59:08.706Z,38.04
2023-05-10T19:04:10.500Z,38.48
2023-05-10T19:09:12.652Z,38.41
2023-05-10T19:14:14.744Z,38.41
2023-05-10T19:19:20.425Z,38.23
2023-05-10T19:24:25.002Z,38.84
2023-05-10T19:29:27.626Z,39.72
2023-05-10T19:34:30.052Z,39.96
2023-05-10T19:39:32.577Z,40.48
2023-05-10T19:44:34.165Z,40.23
2023-05-10T19:49:36.491Z,40.28
2023-05-10T19:54:38.474Z,41.16
2023-05-10T19:59:40.022Z,40.97
2023-05-10T20:04:41.508Z,40.97
2023-05-10T20:09:44.144Z,41.45
2023-05-10T20:14:45.614Z,41.28
2023-05-10T20:19:47.439Z,41.44
2023-05-10T20:24:48.944Z,41.84
2023-05-10T20:29:50.422Z,42.07
2023-05-10T20:34:51.982Z,42.37
2023-05-10T20:39:53.983Z,42.86
2023-05-10T20:44:55.765Z,42.53
2023-05-10T20:49:57.296Z,42.73
2023-05-10T20:54:58.831Z,42.71
2023-05-10T21:00:00.575Z,42.51
2023-05-10T21:05:02.080Z,43.19
2023-05-10T21:10:03.770Z,43.20
2023-05-10T21:15:05.653Z,43.68
2023-05-10T21:20:08.120Z,43.46
2023-05-10T21:25:09.988Z,43.35
2023-05-10T21:30:11.755Z,43.82
2023-05-10T21:35:13.412Z,43.92
2023-05-10T21:40:15.185Z,44.28
2023-05-10T21:45:19.718Z,44.10
2023-05-10T21:50:21.371Z,43.94
2023-05-10T21:55:24.129Z,44.15
2023-05-10T22:00:30.249Z,44.14
2023-05-10T22:05:32.724Z,44.33
2023-05-10T22:10:34.710Z,44.88
2023-05-10T22:15:36.684Z,44.74
2023-05-10T22:20:38.358Z,45.12
2023-05-10T22:25:39.937Z,44.82
2023-05-10T22:30:42.888Z,44.87
2023-05-10T22:35:44.352Z,44.66
2023-05-10T22:40:46.192Z,45.14
2023-05-10T22:45:47.664Z,44.87
2023-05-10T22:50:49.236Z,45.16
2023-05-10T22:55:51.514Z,45.66
2023-05-10T23:00:54.863Z,45.67
2023-05-10T23:05:56.424Z,45.31
2023-05-10T23:10:57.955Z,45.93
2023-05-10T23:16:06.047Z,45.85
2023-05-10T23:21:07.589Z,46.41
2023-05-10T23:26:09.470Z,45.96
2023-05-10T23:31:11.162Z,46.19
2023-05-10T23:36:12.687Z,45.66
2023-05-10T23:41:14.201Z,45.93
2023-05-10T23:46:16.092Z,46.23
2023-05-10T23:51:17.635Z,45.88
2023-05-10T23:56:19.190Z,46.02
